Terminal Aerodrome Forecast
Issued by NWS

Home | Current Version | Previous Version | Text Only | Print | Product List | Glossary On
Versions: 1 2 3 4 5 6 7 8 9 10 11 12 13
274
FTUS43 KSGF 110526
TAFBBG
TAF
KBBG 110526Z 1106/1206 VRB03KT P6SM SCT040 SCT250
     FM110900 06004KT P6SM SCT250
     FM120000 12005KT P6SM BKN250=

USA.gov is the U.S. government's official web portal to all federal, state and local government web resources and services.